createdAt,value
2018-05-09T00:00:07.568Z,1004.54
2018-05-09T00:01:07.552Z,1004.54
2018-05-09T00:02:07.545Z,1004.56
2018-05-09T00:03:07.532Z,1004.52
2018-05-09T00:04:07.544Z,1004.53
2018-05-09T00:05:07.531Z,1004.56
2018-05-09T00:06:07.502Z,1004.54
2018-05-09T00:07:07.491Z,1004.56
2018-05-09T00:08:07.483Z,1004.55
2018-05-09T00:09:07.472Z,1004.55
2018-05-09T00:10:07.476Z,1004.53
2018-05-09T00:11:07.447Z,1004.54
2018-05-09T00:12:07.434Z,1004.56
2018-05-09T00:13:07.429Z,1004.54
2018-05-09T00:14:07.432Z,1004.57
2018-05-09T00:15:07.425Z,1004.56
2018-05-09T00:16:07.398Z,1004.54
2018-05-09T00:17:07.385Z,1004.56
2018-05-09T00:18:07.372Z,1004.59
2018-05-09T00:19:07.363Z,1004.60
2018-05-09T00:20:07.355Z,1004.58
2018-05-09T00:21:07.357Z,1004.54
2018-05-09T00:22:07.331Z,1004.56
2018-05-09T00:23:07.319Z,1004.55
2018-05-09T00:24:07.311Z,1004.53
2018-05-09T00:25:07.299Z,1004.54
2018-05-09T00:26:07.303Z,1004.55
2018-05-09T00:27:07.293Z,1004.55
2018-05-09T00:28:07.265Z,1004.50
2018-05-09T00:29:07.255Z,1004.49
2018-05-09T00:30:07.245Z,1004.54
2018-05-09T00:31:07.240Z,1004.53
2018-05-09T00:32:07.224Z,1004.53
2018-05-09T00:33:07.225Z,1004.51
2018-05-09T00:34:07.198Z,1004.50
2018-05-09T00:35:07.188Z,1004.56
2018-05-09T00:36:07.176Z,1004.52
2018-05-09T00:37:07.166Z,1004.52
2018-05-09T00:38:07.175Z,1004.51
2018-05-09T00:39:07.140Z,1004.48
2018-05-09T00:40:07.131Z,1004.46
2018-05-09T00:41:07.118Z,1004.49
2018-05-09T00:42:07.114Z,1004.49
2018-05-09T00:43:07.104Z,1004.46
2018-05-09T00:44:07.098Z,1004.47
2018-05-09T00:45:07.071Z,1004.45
2018-05-09T00:46:07.059Z,1004.41
2018-05-09T00:47:07.049Z,1004.42
2018-05-09T00:48:07.037Z,1004.43
2018-05-09T00:49:07.037Z,1004.40
2018-05-09T00:50:07.076Z,1004.41
2018-05-09T00:51:07.005Z,1004.41
2018-05-09T00:52:06.988Z,1004.44
2018-05-09T00:53:06.990Z,1004.40
2018-05-09T00:54:06.963Z,1004.41
2018-05-09T00:55:06.955Z,1004.38
2018-05-09T00:56:06.941Z,1004.38
2018-05-09T00:57:06.944Z,1004.36
2018-05-09T00:58:06.916Z,1004.37
2018-05-09T00:59:06.917Z,1004.34
2018-05-09T01:00:06.891Z,1004.35
2018-05-09T01:01:06.884Z,1004.35
2018-05-09T01:02:06.869Z,1004.32
2018-05-09T01:03:06.856Z,1004.31
2018-05-09T01:04:06.844Z,1004.26
2018-05-09T01:05:06.849Z,1004.29
2018-05-09T01:06:06.821Z,1004.32
2018-05-09T01:07:06.808Z,1004.30
2018-05-09T01:08:06.795Z,1004.31
2018-05-09T01:09:06.780Z,1004.30
2018-05-09T01:10:06.773Z,1004.32
2018-05-09T01:11:06.770Z,1004.31
2018-05-09T01:12:06.745Z,1004.31
2018-05-09T01:13:06.733Z,1004.27
2018-05-09T01:14:06.718Z,1004.25
2018-05-09T01:15:06.725Z,1004.29
2018-05-09T01:16:06.695Z,1004.28
2018-05-09T01:17:06.683Z,1004.25
2018-05-09T01:18:06.673Z,1004.28
2018-05-09T01:19:06.655Z,1004.22
2018-05-09T01:20:06.662Z,1004.21
2018-05-09T01:21:06.634Z,1004.17
2018-05-09T01:22:06.636Z,1004.18
2018-05-09T01:23:06.605Z,1004.21
2018-05-09T01:24:06.595Z,1004.17
2018-05-09T01:25:06.583Z,1004.17
2018-05-09T01:26:06.574Z,1004.16
2018-05-09T01:28:38.587Z,1004.18
2018-05-09T01:29:38.561Z,1004.14
2018-05-09T01:30:38.545Z,1004.16
2018-05-09T01:31:38.537Z,1004.13
2018-05-09T01:32:38.541Z,1004.18
2018-05-09T01:33:38.509Z,1004.15
2018-05-09T01:34:38.501Z,1004.14
2018-05-09T01:35:38.486Z,1004.15
2018-05-09T01:36:38.476Z,1004.17
2018-05-09T01:37:38.461Z,1004.13
2018-05-09T01:38:38.466Z,1004.14
2018-05-09T01:39:38.438Z,1004.13
2018-05-09T01:40:38.427Z,1004.13
2018-05-09T01:41:38.411Z,1004.16
2018-05-09T01:42:38.399Z,1004.19
2018-05-09T01:43:38.384Z,1004.18
2018-05-09T01:44:38.391Z,1004.17
2018-05-09T01:45:39.199Z,1004.17
2018-05-09T01:46:38.348Z,1004.16
2018-05-09T01:47:38.338Z,1004.16
2018-05-09T01:48:38.340Z,1004.16
2018-05-09T01:49:38.332Z,1004.16
2018-05-09T01:50:38.294Z,1004.15
2018-05-09T01:51:38.286Z,1004.14
2018-05-09T01:52:38.274Z,1004.13
2018-05-09T01:53:38.259Z,1004.12
2018-05-09T01:54:38.246Z,1004.09
2018-05-09T01:55:38.248Z,1004.13
2018-05-09T01:56:38.222Z,1004.12
2018-05-09T01:57:38.211Z,1004.14
2018-05-09T01:58:38.214Z,1004.12
2018-05-09T01:59:38.186Z,1004.12
2018-05-09T02:00:38.172Z,1004.11
2018-05-09T02:01:38.158Z,1004.12
2018-05-09T02:02:38.145Z,1004.09
2018-05-09T02:03:38.135Z,1004.14
2018-05-09T02:04:38.136Z,1004.15
2018-05-09T02:05:38.106Z,1004.08
2018-05-09T02:06:38.116Z,1004.09
2018-05-09T02:07:38.084Z,1004.14
2018-05-09T02:08:38.070Z,1004.09
2018-05-09T02:09:38.056Z,1004.09
2018-05-09T02:10:38.045Z,1004.06
2018-05-09T02:11:38.034Z,1004.07
2018-05-09T02:12:38.039Z,1004.07
2018-05-09T02:13:38.006Z,1004.06
2018-05-09T02:14:37.995Z,1004.09
2018-05-09T02:15:37.980Z,1004.10
2018-05-09T02:16:37.971Z,1004.11
2018-05-09T02:17:38.000Z,1004.11
2018-05-09T02:18:37.955Z,1004.15
2018-05-09T02:19:37.931Z,1004.14
2018-05-09T02:20:37.930Z,1004.14
2018-05-09T02:21:37.904Z,1004.16
2018-05-09T02:22:37.901Z,1004.13
2018-05-09T02:23:37.881Z,1004.12
2018-05-09T02:24:37.881Z,1004.09
2018-05-09T02:25:37.852Z,1004.06
2018-05-09T02:26:37.843Z,1004.03
2018-05-09T02:27:37.826Z,1004.05
2018-05-09T02:28:37.816Z,1004.07
2018-05-09T02:29:37.800Z,1004.03
2018-05-09T02:30:37.800Z,1004.00
2018-05-09T02:31:37.775Z,1003.99
2018-05-09T02:32:37.762Z,1004.00
2018-05-09T02:33:37.763Z,1004.00
2018-05-09T02:34:37.821Z,1004.00
2018-05-09T02:35:37.724Z,1004.01
2018-05-09T02:36:37.710Z,1003.97
2018-05-09T02:37:37.698Z,1003.99
2018-05-09T02:38:37.702Z,1003.99
2018-05-09T02:39:37.673Z,1003.98
2018-05-09T02:40:37.661Z,1003.95
2018-05-09T02:41:37.648Z,1003.98
2018-05-09T02:42:37.633Z,1003.93
2018-05-09T02:43:37.669Z,1003.96
2018-05-09T02:44:37.624Z,1003.95
2018-05-09T02:45:37.595Z,1003.94
2018-05-09T02:46:37.584Z,1003.95
2018-05-09T02:47:37.571Z,1003.95
2018-05-09T02:48:37.558Z,1003.95
2018-05-09T02:49:37.542Z,1003.95
2018-05-09T02:50:37.547Z,1003.99
2018-05-09T02:51:37.518Z,1003.98
2018-05-09T02:52:37.507Z,1004.03
2018-05-09T02:53:37.493Z,1004.04
2018-05-09T02:54:37.478Z,1004.06
2018-05-09T02:55:37.466Z,1004.08
2018-05-09T02:56:37.477Z,1004.11
2018-05-09T02:57:37.446Z,1004.11
2018-05-09T02:58:37.427Z,1004.12
2018-05-09T02:59:37.413Z,1004.12
2018-05-09T03:00:37.420Z,1004.11
2018-05-09T03:01:37.390Z,1004.11
2018-05-09T03:02:37.378Z,1004.14
2018-05-09T03:03:37.364Z,1004.12
2018-05-09T03:04:37.348Z,1004.07
2018-05-09T03:05:37.337Z,1004.11
2018-05-09T03:06:37.338Z,1004.13
2018-05-09T03:07:37.311Z,1004.11
2018-05-09T03:08:37.296Z,1004.14
2018-05-09T03:09:37.283Z,1004.16
2018-05-09T03:10:37.272Z,1004.16
2018-05-09T03:11:37.274Z,1004.16
2018-05-09T03:12:37.245Z,1004.13
2018-05-09T03:13:37.231Z,1004.18
2018-05-09T03:14:37.216Z,1004.12
2018-05-09T03:15:37.203Z,1004.13
2018-05-09T03:16:37.190Z,1004.16
2018-05-09T03:17:37.189Z,1004.14
2018-05-09T03:18:37.162Z,1004.17
2018-05-09T03:19:37.149Z,1004.17
2018-05-09T03:20:37.138Z,1004.20
2018-05-09T03:21:37.129Z,1004.19
2018-05-09T03:22:37.124Z,1004.20
2018-05-09T03:23:37.099Z,1004.21
2018-05-09T03:24:37.085Z,1004.23
2018-05-09T03:25:37.069Z,1004.25
2018-05-09T03:26:37.053Z,1004.25
2018-05-09T03:27:37.058Z,1004.27
2018-05-09T03:28:37.044Z,1004.27
2018-05-09T03:29:37.017Z,1004.26
2018-05-09T03:30:37.003Z,1004.27
2018-05-09T03:31:36.995Z,1004.25
2018-05-09T03:32:36.993Z,1004.27
2018-05-09T03:33:36.966Z,1004.24
2018-05-09T03:34:36.950Z,1004.22
2018-05-09T03:35:36.939Z,1004.28
2018-05-09T03:36:36.922Z,1004.23
2018-05-09T03:37:36.912Z,1004.22
2018-05-09T03:38:36.911Z,1004.24
2018-05-09T03:39:36.884Z,1004.27
2018-05-09T03:40:36.870Z,1004.23
2018-05-09T03:41:36.860Z,1004.25
2018-05-09T03:42:36.848Z,1004.24
2018-05-09T03:43:36.851Z,1004.22
2018-05-09T03:44:36.836Z,1004.23
2018-05-09T03:45:36.802Z,1004.21
2018-05-09T03:46:36.798Z,1004.24
2018-05-09T03:47:36.783Z,1004.23
2018-05-09T03:48:36.783Z,1004.25
2018-05-09T03:49:36.757Z,1004.25
2018-05-09T03:50:36.754Z,1004.26
2018-05-09T03:51:36.731Z,1004.24
2018-05-09T03:52:36.716Z,1004.28
2018-05-09T03:53:36.696Z,1004.29
2018-05-09T03:54:36.689Z,1004.29
2018-05-09T03:55:36.700Z,1004.30
2018-05-09T03:56:36.683Z,1004.31
2018-05-09T03:57:36.649Z,1004.32
2018-05-09T03:58:36.635Z,1004.38
2018-05-09T03:59:36.622Z,1004.36
2018-05-09T04:00:36.616Z,1004.36
2018-05-09T04:01:36.599Z,1004.38
2018-05-09T04:02:36.603Z,1004.39
2018-05-09T04:03:36.571Z,1004.39
2018-05-09T04:04:36.559Z,1004.38
2018-05-09T04:05:36.543Z,1004.37
2018-05-09T04:06:36.531Z,1004.36
2018-05-09T04:07:36.518Z,1004.35
2018-05-09T04:08:36.523Z,1004.32
2018-05-09T04:09:36.512Z,1004.38
2018-05-09T04:10:36.482Z,1004.36
2018-05-09T04:11:36.468Z,1004.32
2018-05-09T04:12:36.455Z,1004.36
2018-05-09T04:13:36.438Z,1004.36
2018-05-09T04:14:36.451Z,1004.36
2018-05-09T04:15:36.415Z,1004.36
2018-05-09T04:16:36.404Z,1004.35
2018-05-09T04:17:36.385Z,1004.34
2018-05-09T04:18:36.386Z,1004.36
2018-05-09T04:19:36.374Z,1004.32
2018-05-09T04:20:36.370Z,1004.36
2018-05-09T04:21:36.332Z,1004.36
2018-05-09T04:22:36.318Z,1004.33
2018-05-09T04:23:36.308Z,1004.39
2018-05-09T04:24:36.318Z,1004.36
2018-05-09T04:25:36.278Z,1004.36
2018-05-09T04:26:36.269Z,1004.37
2018-05-09T04:27:36.259Z,1004.43
2018-05-09T04:28:36.245Z,1004.43
2018-05-09T04:29:36.229Z,1004.42
2018-05-09T04:30:36.231Z,1004.43
2018-05-09T04:31:36.203Z,1004.45
2018-05-09T04:32:36.191Z,1004.45
2018-05-09T04:33:36.178Z,1004.45
2018-05-09T04:34:36.164Z,1004.45
2018-05-09T04:35:36.167Z,1004.45
2018-05-09T04:36:36.136Z,1004.46
2018-05-09T04:37:36.122Z,1004.45
2018-05-09T04:38:36.113Z,1004.46
2018-05-09T04:39:36.103Z,1004.51
2018-05-09T04:40:36.109Z,1004.49
2018-05-09T04:41:57.118Z,1004.50
2018-05-09T04:42:36.067Z,1004.50
2018-05-09T04:43:36.049Z,1004.51
2018-05-09T04:44:36.036Z,1004.56
2018-05-09T04:45:36.023Z,1004.52
2018-05-09T04:46:36.010Z,1004.49
2018-05-09T04:47:36.015Z,1004.51
2018-05-09T04:48:35.986Z,1004.50
2018-05-09T04:49:35.972Z,1004.51
2018-05-09T04:50:35.960Z,1004.54
2018-05-09T04:51:35.950Z,1004.52
2018-05-09T04:52:35.949Z,1004.54
2018-05-09T04:53:35.921Z,1004.53
2018-05-09T04:54:35.906Z,1004.55
2018-05-09T04:55:36.037Z,1004.55
2018-05-09T04:56:35.884Z,1004.56
2018-05-09T04:57:35.885Z,1004.58
2018-05-09T04:58:35.860Z,1004.62
2018-05-09T04:59:35.843Z,1004.59
2018-05-09T05:00:35.831Z,1004.61
2018-05-09T05:01:35.820Z,1004.61
2018-05-09T05:02:35.805Z,1004.62
2018-05-09T05:03:35.808Z,1004.62
2018-05-09T05:04:35.780Z,1004.59
2018-05-09T05:05:35.766Z,1004.58
2018-05-09T05:06:35.754Z,1004.63
2018-05-09T05:07:35.765Z,1004.64
2018-05-09T05:08:35.745Z,1004.63
2018-05-09T05:09:35.718Z,1004.65
2018-05-09T05:10:35.703Z,1004.64
2018-05-09T05:11:35.690Z,1004.65
2018-05-09T05:12:35.677Z,1004.66
2018-05-09T05:13:35.690Z,1004.68
2018-05-09T05:14:35.650Z,1004.68
2018-05-09T05:15:35.669Z,1004.68
2018-05-09T05:16:35.627Z,1004.69
2018-05-09T05:17:35.614Z,1004.68
2018-05-09T05:18:35.600Z,1004.68
2018-05-09T05:19:35.600Z,1004.67
2018-05-09T05:20:35.590Z,1004.68
2018-05-09T05:21:35.564Z,1004.70
2018-05-09T05:22:35.552Z,1004.66
2018-05-09T05:23:35.541Z,1004.68
2018-05-09T05:24:35.527Z,1004.71
2018-05-09T05:25:35.536Z,1004.71
2018-05-09T05:26:35.501Z,1004.73
2018-05-09T05:27:35.487Z,1004.73
2018-05-09T05:28:35.471Z,1004.73
2018-05-09T05:29:35.462Z,1004.73
2018-05-09T05:30:35.452Z,1004.73
2018-05-09T05:31:35.449Z,1004.74
2018-05-09T05:32:35.425Z,1004.71
2018-05-09T05:33:35.409Z,1004.71
2018-05-09T05:34:35.411Z,1004.69
2018-05-09T05:35:35.398Z,1004.66
2018-05-09T05:36:56.391Z,1004.67
2018-05-09T05:37:35.371Z,1004.66
2018-05-09T05:38:35.360Z,1004.67
2018-05-09T05:39:35.340Z,1004.67
2018-05-09T05:40:35.325Z,1004.69
2018-05-09T05:41:35.331Z,1004.69
2018-05-09T05:42:35.305Z,1004.68
2018-05-09T05:43:35.292Z,1004.67
2018-05-09T05:44:35.276Z,1004.71
2018-05-09T05:45:35.264Z,1004.73
2018-05-09T05:46:35.253Z,1004.76
2018-05-09T05:47:35.255Z,1004.73
2018-05-09T05:48:35.231Z,1004.74
2018-05-09T05:49:35.216Z,1004.76
2018-05-09T05:50:35.205Z,1004.74
2018-05-09T05:51:35.193Z,1004.75
2018-05-09T05:52:35.197Z,1004.76
2018-05-09T05:53:35.166Z,1004.77
2018-05-09T05:54:35.157Z,1004.75
2018-05-09T05:55:35.143Z,1004.75
2018-05-09T05:56:35.131Z,1004.80
2018-05-09T05:57:35.119Z,1004.78
2018-05-09T05:58:35.119Z,1004.77
2018-05-09T05:59:35.097Z,1004.77
2018-05-09T06:00:35.084Z,1004.79
2018-05-09T06:01:35.095Z,1004.80
2018-05-09T06:02:35.060Z,1004.83
2018-05-09T06:03:35.063Z,1004.86
2018-05-09T06:04:36.647Z,1004.81
2018-05-09T06:05:35.025Z,1004.87
2018-05-09T06:06:35.013Z,1004.86
2018-05-09T06:07:35.001Z,1004.87
2018-05-09T06:08:35.007Z,1004.84
2018-05-09T06:09:34.977Z,1004.80
2018-05-09T06:10:34.964Z,1004.80
2018-05-09T06:11:34.953Z,1004.76
2018-05-09T06:12:34.942Z,1004.77
2018-05-09T06:13:34.930Z,1004.78
2018-05-09T06:14:34.934Z,1004.81
2018-05-09T06:15:34.909Z,1004.80
2018-05-09T06:16:34.902Z,1004.83
2018-05-09T06:17:34.884Z,1004.82
2018-05-09T06:18:34.889Z,1004.85
2018-05-09T06:19:34.862Z,1004.85
2018-05-09T06:20:34.850Z,1004.84
2018-05-09T06:21:34.841Z,1004.87
2018-05-09T06:22:34.827Z,1004.88
2018-05-09T06:23:34.833Z,1004.89
2018-05-09T06:24:34.822Z,1004.87
2018-05-09T06:25:34.795Z,1004.81
2018-05-09T06:26:34.783Z,1004.86
2018-05-09T06:27:34.769Z,1004.89
2018-05-09T06:28:34.776Z,1004.85
2018-05-09T06:29:34.764Z,1004.87
2018-05-09T06:30:34.757Z,1004.89
2018-05-09T06:31:34.720Z,1004.88
2018-05-09T06:32:34.746Z,1004.90
2018-05-09T06:33:34.719Z,1004.88
2018-05-09T06:34:34.695Z,1004.90
2018-05-09T06:35:34.682Z,1004.86
2018-05-09T06:36:34.671Z,1004.92
2018-05-09T06:37:34.741Z,1004.90
2018-05-09T06:38:34.646Z,1004.94
2018-05-09T06:39:34.657Z,1004.90
2018-05-09T06:40:34.629Z,1004.92
2018-05-09T06:41:34.623Z,1004.92
2018-05-09T06:42:34.610Z,1004.90
2018-05-09T06:43:34.592Z,1004.89
2018-05-09T06:44:34.581Z,1004.88
2018-05-09T06:45:34.584Z,1004.87
2018-05-09T06:46:34.560Z,1004.88
2018-05-09T06:47:34.543Z,1004.88
2018-05-09T06:48:34.535Z,1004.88
2018-05-09T06:49:34.524Z,1004.86
2018-05-09T06:50:34.510Z,1004.89
2018-05-09T06:51:34.519Z,1004.94
2018-05-09T06:52:34.491Z,1005.00
2018-05-09T06:53:34.481Z,1005.02
2018-05-09T06:54:34.461Z,1005.01
2018-05-09T06:55:34.458Z,1005.01
2018-05-09T06:56:34.455Z,1005.01
2018-05-09T06:57:34.427Z,1005.03
2018-05-09T06:58:34.421Z,1005.00
2018-05-09T06:59:34.408Z,1005.02
2018-05-09T07:00:34.399Z,1005.07
2018-05-09T07:01:34.407Z,1005.07
2018-05-09T07:02:34.377Z,1005.03
2018-05-09T07:03:34.369Z,1005.05
2018-05-09T07:04:34.355Z,1005.07
2018-05-09T07:05:34.348Z,1005.05
2018-05-09T07:06:34.465Z,1005.09
2018-05-09T07:07:34.353Z,1005.12
2018-05-09T07:08:34.314Z,1005.12
2018-05-09T07:09:34.298Z,1005.13
2018-05-09T07:10:34.289Z,1005.18
2018-05-09T07:11:34.277Z,1005.19
2018-05-09T07:12:34.327Z,1005.17
2018-05-09T07:13:34.277Z,1005.16
2018-05-09T07:14:34.246Z,1005.22
2018-05-09T07:15:34.242Z,1005.12
2018-05-09T07:16:34.229Z,1005.16
2018-05-09T07:17:34.210Z,1005.67
2018-05-09T07:18:34.222Z,1005.39
2018-05-09T07:19:34.193Z,1005.18
2018-05-09T07:20:34.181Z,1005.23
2018-05-09T07:21:34.172Z,1005.41
2018-05-09T07:22:34.158Z,1005.28
2018-05-09T07:23:34.149Z,1005.19
2018-05-09T07:24:34.161Z,1005.21
2018-05-09T07:25:34.127Z,1005.16
2018-05-09T07:26:34.117Z,1005.30
2018-05-09T07:27:34.106Z,1005.28
2018-05-09T07:28:34.097Z,1005.22
2018-05-09T07:29:34.084Z,1005.14
2018-05-09T07:30:34.089Z,1005.13
2018-05-09T07:31:34.065Z,1005.18
2018-05-09T07:32:34.055Z,1005.17
2018-05-09T07:33:34.042Z,1005.16
2018-05-09T07:34:34.056Z,1005.14
2018-05-09T07:35:34.068Z,1005.12
2018-05-09T07:36:34.028Z,1005.15
2018-05-09T07:37:33.998Z,1005.14
2018-05-09T07:38:33.993Z,1005.15
2018-05-09T07:39:33.983Z,1005.19
2018-05-09T07:40:33.975Z,1005.16
2018-05-09T07:41:33.959Z,1005.13
2018-05-09T07:42:33.963Z,1005.09
2018-05-09T07:43:33.937Z,1005.09
2018-05-09T07:44:33.927Z,1005.11
2018-05-09T07:45:33.916Z,1005.10
2018-05-09T07:46:33.909Z,1005.08
2018-05-09T07:47:33.959Z,1005.08
2018-05-09T07:48:33.885Z,1005.07
2018-05-09T07:49:33.876Z,1005.06
2018-05-09T07:50:33.865Z,1005.00
2018-05-09T07:51:33.857Z,1004.99
2018-05-09T07:52:33.862Z,1005.01
2018-05-09T07:53:33.841Z,1005.02
2018-05-09T07:54:33.822Z,1005.01
2018-05-09T07:55:33.898Z,1005.00
2018-05-09T07:56:33.806Z,1005.02
2018-05-09T07:57:33.797Z,1005.04
2018-05-09T07:58:33.805Z,1005.07
2018-05-09T07:59:33.773Z,1005.04
2018-05-09T08:00:33.770Z,1005.12
2018-05-09T08:01:33.752Z,1005.09
2018-05-09T08:02:33.747Z,1005.09
2018-05-09T08:03:33.740Z,1005.10
2018-05-09T08:04:33.745Z,1005.12
2018-05-09T08:05:33.717Z,1005.10
2018-05-09T08:06:33.708Z,1005.05
2018-05-09T08:07:33.701Z,1005.05
2018-05-09T08:08:33.691Z,1005.05
2018-05-09T08:09:33.725Z,1004.99
2018-05-09T08:10:33.671Z,1005.02
2018-05-09T08:11:33.661Z,1005.01
2018-05-09T08:12:33.657Z,1005.00
2018-05-09T08:13:33.644Z,1005.00
2018-05-09T08:14:33.643Z,1005.02
2018-05-09T08:15:33.628Z,1005.05
2018-05-09T08:16:33.623Z,1005.02
2018-05-09T08:17:33.602Z,1005.04
2018-05-09T08:18:33.595Z,1005.02
2018-05-09T08:19:33.606Z,1005.03
2018-05-09T08:20:33.575Z,1005.04
2018-05-09T08:21:33.565Z,1005.02
2018-05-09T08:22:33.555Z,1004.97
2018-05-09T08:23:33.552Z,1004.98
2018-05-09T08:24:33.545Z,1004.99
2018-05-09T08:25:33.546Z,1005.03
2018-05-09T08:26:33.929Z,1005.04
2018-05-09T08:27:33.513Z,1005.01
2018-05-09T08:28:33.501Z,1005.02
2018-05-09T08:29:33.492Z,1005.05
2018-05-09T08:30:33.481Z,1005.01
2018-05-09T08:31:33.474Z,1005.07
2018-05-09T08:32:33.481Z,1005.04
2018-05-09T08:33:33.454Z,1005.07
2018-05-09T08:34:33.629Z,1005.04
2018-05-09T08:35:33.438Z,1005.02
2018-05-09T08:36:33.488Z,1005.03
2018-05-09T08:37:33.427Z,1005.03
2018-05-09T08:38:33.425Z,1005.04
2018-05-09T08:39:33.405Z,1005.00
2018-05-09T08:40:33.392Z,1005.02
2018-05-09T08:41:33.407Z,1004.99
2018-05-09T08:42:33.411Z,1004.99
2018-05-09T08:43:33.388Z,1005.01
2018-05-09T08:44:33.356Z,1004.98
2018-05-09T08:45:33.349Z,1005.01
2018-05-09T08:46:33.337Z,1005.00
2018-05-09T08:47:33.328Z,1005.06
2018-05-09T08:48:33.321Z,1004.99
2018-05-09T08:49:33.330Z,1005.02
2018-05-09T08:50:33.301Z,1005.02
2018-05-09T08:51:33.297Z,1005.00
2018-05-09T08:52:33.288Z,1005.01
2018-05-09T08:53:33.277Z,1004.96
2018-05-09T08:54:33.269Z,1004.98
2018-05-09T08:55:33.377Z,1005.00
2018-05-09T08:56:33.251Z,1004.96
2018-05-09T08:57:33.245Z,1004.94
2018-05-09T08:58:33.231Z,1004.94
2018-05-09T08:59:33.225Z,1004.92
2018-05-09T09:00:33.222Z,1004.92
2018-05-09T09:01:33.224Z,1004.90
2018-05-09T09:02:33.196Z,1004.91
2018-05-09T09:03:33.203Z,1004.88
2018-05-09T09:04:33.199Z,1004.90
2018-05-09T09:05:33.177Z,1004.88
2018-05-09T09:06:33.196Z,1004.94
2018-05-09T09:07:33.165Z,1004.89
2018-05-09T09:08:33.152Z,1004.98
2018-05-09T09:09:33.145Z,1004.98
2018-05-09T09:10:33.151Z,1004.98
2018-05-09T09:11:33.128Z,1005.00
2018-05-09T09:12:33.122Z,1004.99
2018-05-09T09:13:33.113Z,1004.97
2018-05-09T09:14:33.103Z,1004.98
2018-05-09T09:15:33.166Z,1004.93
2018-05-09T09:16:33.101Z,1004.98
2018-05-09T09:17:33.092Z,1005.05
2018-05-09T09:18:33.154Z,1005.00
2018-05-09T09:19:33.062Z,1004.97
2018-05-09T09:20:33.058Z,1004.88
2018-05-09T09:21:33.065Z,1004.65
2018-05-09T09:22:33.047Z,1004.43
2018-05-09T09:23:33.033Z,1004.21
2018-05-09T09:24:33.029Z,1004.09
2018-05-09T09:25:33.023Z,1003.87
2018-05-09T09:26:33.036Z,1003.77
2018-05-09T09:27:33.010Z,1003.58
2018-05-09T09:28:33.017Z,1003.34
2018-05-09T09:29:32.999Z,1003.37
2018-05-09T09:30:32.994Z,1003.54
2018-05-09T09:31:32.986Z,1003.32
2018-05-09T09:32:33.001Z,1002.93
2018-05-09T09:33:32.985Z,1003.02
2018-05-09T09:34:32.975Z,1003.06
2018-05-09T09:35:32.967Z,1003.21
2018-05-09T09:36:32.969Z,1003.34
2018-05-09T09:37:32.966Z,1003.52
2018-05-09T09:38:32.978Z,1003.64
2018-05-09T09:39:32.957Z,1003.77
2018-05-09T09:40:32.971Z,1003.92
2018-05-09T09:41:32.962Z,1004.10
2018-05-09T09:42:32.951Z,1004.31
2018-05-09T09:43:32.971Z,1004.44
2018-05-09T09:44:32.949Z,1004.56
2018-05-09T09:45:32.948Z,1004.69
2018-05-09T09:46:32.946Z,1004.74
2018-05-09T09:47:32.946Z,1004.81
2018-05-09T09:48:32.960Z,1004.80
2018-05-09T09:49:32.943Z,1004.86
2018-05-09T09:50:33.011Z,1004.91
2018-05-09T09:51:32.948Z,1004.94
2018-05-09T09:52:32.964Z,1004.97
2018-05-09T09:53:32.945Z,1004.98
2018-05-09T09:54:32.944Z,1005.00
2018-05-09T09:55:32.944Z,1004.99
2018-05-09T09:56:32.945Z,1004.97
2018-05-09T09:57:32.947Z,1004.93
2018-05-09T09:58:32.973Z,1004.95
2018-05-09T09:59:32.947Z,1004.95
2018-05-09T10:00:32.948Z,1004.93
2018-05-09T10:01:32.984Z,1004.90
2018-05-09T10:02:32.948Z,1004.84
2018-05-09T10:03:32.954Z,1004.88
2018-05-09T10:04:32.970Z,1004.90
2018-05-09T10:05:32.954Z,1004.82
2018-05-09T10:06:32.956Z,1004.82
2018-05-09T10:07:32.964Z,1004.82
2018-05-09T10:08:32.960Z,1004.80
2018-05-09T10:09:32.965Z,1004.78
2018-05-09T10:10:32.983Z,1004.79
2018-05-09T10:11:32.965Z,1004.77
2018-05-09T10:12:32.968Z,1004.76
2018-05-09T10:13:32.964Z,1004.81
2018-05-09T10:14:32.991Z,1004.82
2018-05-09T10:15:32.973Z,1004.75
2018-05-09T10:16:32.974Z,1004.79
2018-05-09T10:17:32.976Z,1004.79
2018-05-09T10:18:32.975Z,1004.80
2018-05-09T10:19:32.976Z,1004.77
2018-05-09T10:20:32.994Z,1004.75
2018-05-09T10:21:32.981Z,1004.71
2018-05-09T10:22:32.995Z,1004.70
2018-05-09T10:23:32.985Z,1004.70
2018-05-09T10:24:32.996Z,1004.67
2018-05-09T10:25:33.010Z,1004.69
2018-05-09T10:26:32.992Z,1004.65
2018-05-09T10:27:32.997Z,1004.64
2018-05-09T10:28:32.997Z,1004.63
2018-05-09T10:29:33.017Z,1004.60
2018-05-09T10:30:33.007Z,1004.57
2018-05-09T10:31:33.196Z,1004.53
2018-05-09T10:32:33.008Z,1004.52
2018-05-09T10:33:33.016Z,1004.52
2018-05-09T10:34:33.011Z,1004.53
2018-05-09T10:35:33.018Z,1004.47
2018-05-09T10:36:33.036Z,1004.52
2018-05-09T10:37:33.037Z,1004.44
2018-05-09T10:38:33.030Z,1004.44
2018-05-09T10:39:33.030Z,1004.41
2018-05-09T10:40:33.050Z,1004.44
2018-05-09T10:41:33.037Z,1004.39
2018-05-09T10:42:33.038Z,1004.45
2018-05-09T10:43:33.062Z,1004.42
2018-05-09T10:44:33.053Z,1004.43
2018-05-09T10:45:33.050Z,1004.38
2018-05-09T10:46:33.075Z,1004.39
2018-05-09T10:47:33.110Z,1004.35
2018-05-09T10:48:33.066Z,1004.35
2018-05-09T10:49:33.068Z,1004.34
2018-05-09T10:50:33.089Z,1004.31
2018-05-09T10:51:33.076Z,1004.34
2018-05-09T10:52:33.084Z,1004.32
2018-05-09T10:53:33.085Z,1004.29
2018-05-09T10:54:33.089Z,1004.35
2018-05-09T10:55:33.106Z,1004.33
2018-05-09T10:56:33.106Z,1004.32
2018-05-09T10:57:33.116Z,1004.37
2018-05-09T10:58:33.104Z,1004.34
2018-05-09T10:59:33.108Z,1004.39
2018-05-09T11:00:33.113Z,1004.32
2018-05-09T11:01:33.116Z,1004.31
2018-05-09T11:02:33.140Z,1004.31
2018-05-09T11:03:33.125Z,1004.38
2018-05-09T11:04:33.130Z,1004.36
2018-05-09T11:05:33.134Z,1004.29
2018-05-09T11:06:33.144Z,1004.33
2018-05-09T11:07:33.159Z,1004.29
2018-05-09T11:08:33.143Z,1004.30
2018-05-09T11:09:33.147Z,1004.28
2018-05-09T11:10:33.166Z,1004.27
2018-05-09T11:11:33.155Z,1004.27
2018-05-09T11:12:33.174Z,1004.25
2018-05-09T11:13:33.166Z,1004.25
2018-05-09T11:14:33.168Z,1004.23
2018-05-09T11:15:33.192Z,1004.19
2018-05-09T11:16:33.203Z,1004.20
2018-05-09T11:17:33.195Z,1004.20
2018-05-09T11:18:33.189Z,1004.20
2018-05-09T11:19:33.194Z,1004.20
2018-05-09T11:20:33.208Z,1004.20
2018-05-09T11:21:33.200Z,1004.20
2018-05-09T11:22:33.204Z,1004.16
2018-05-09T11:23:33.204Z,1004.16
2018-05-09T11:24:33.254Z,1004.14
2018-05-09T11:25:33.217Z,1004.10
2018-05-09T11:26:33.224Z,1004.14
2018-05-09T11:27:33.226Z,1004.10
2018-05-09T11:28:33.238Z,1004.06
2018-05-09T11:29:33.249Z,1004.11
2018-05-09T11:30:33.257Z,1004.14
2018-05-09T11:31:33.247Z,1004.11
2018-05-09T11:32:33.252Z,1004.13
2018-05-09T11:33:33.250Z,1004.11
2018-05-09T11:34:33.255Z,1004.08
2018-05-09T11:35:33.282Z,1004.13
2018-05-09T11:36:33.267Z,1004.08
2018-05-09T11:37:33.290Z,1004.05
2018-05-09T11:38:33.277Z,1004.04
2018-05-09T11:39:33.281Z,1003.98
2018-05-09T11:40:33.289Z,1003.91
2018-05-09T11:41:33.295Z,1003.91
2018-05-09T11:42:54.318Z,1003.96
2018-05-09T11:43:33.302Z,1003.95
2018-05-09T11:44:33.309Z,1003.99
2018-05-09T11:45:33.306Z,1004.00
2018-05-09T11:46:33.318Z,1003.96
2018-05-09T11:47:33.333Z,1003.97
2018-05-09T11:48:33.326Z,1004.01
2018-05-09T11:49:33.327Z,1003.98
2018-05-09T11:50:33.332Z,1003.93
2018-05-09T11:51:33.338Z,1003.96
2018-05-09T11:52:33.359Z,1003.97
2018-05-09T11:53:33.360Z,1003.95
2018-05-09T11:54:33.346Z,1003.99
2018-05-09T11:55:33.358Z,1003.96
2018-05-09T11:56:33.362Z,1003.92
2018-05-09T11:57:33.361Z,1003.89
2018-05-09T11:58:33.380Z,1003.90
2018-05-09T11:59:33.390Z,1003.94
2018-05-09T12:00:33.376Z,1003.92
2018-05-09T12:01:33.382Z,1003.92
2018-05-09T12:02:33.410Z,1003.95
2018-05-09T12:03:33.406Z,1003.88
2018-05-09T12:04:33.401Z,1003.85
2018-05-09T12:05:33.400Z,1003.80
2018-05-09T12:06:33.402Z,1003.75